createdAt,value
2022-11-29T00:00:08.628Z,16.60
2022-11-29T00:01:08.610Z,17.40
2022-11-29T00:02:08.699Z,23.00
2022-11-29T00:03:08.655Z,17.10
2022-11-29T00:04:08.700Z,18.70
2022-11-29T00:05:08.629Z,19.30
2022-11-29T00:06:08.634Z,19.00
2022-11-29T00:07:08.611Z,20.20
2022-11-29T00:08:08.612Z,17.20
2022-11-29T00:09:08.530Z,18.50
2022-11-29T00:10:08.653Z,17.70
2022-11-29T00:11:08.489Z,23.30
2022-11-29T00:12:08.480Z,19.20
2022-11-29T00:13:08.479Z,17.40
2022-11-29T00:14:08.848Z,19.10
2022-11-29T00:15:08.459Z,17.60
2022-11-29T00:16:08.489Z,20.80
2022-11-29T00:17:08.513Z,21.40
2022-11-29T00:18:08.507Z,20.20
2022-11-29T00:19:10.778Z,16.00
2022-11-29T00:20:10.581Z,19.00
2022-11-29T00:21:08.422Z,19.30
2022-11-29T00:22:09.737Z,21.10
2022-11-29T00:23:08.385Z,18.30
2022-11-29T00:24:08.370Z,17.60
2022-11-29T00:25:08.550Z,18.60
2022-11-29T00:26:08.379Z,21.30
2022-11-29T00:27:08.316Z,22.10
2022-11-29T00:28:08.505Z,22.10
2022-11-29T00:29:08.336Z,21.10
2022-11-29T00:30:17.003Z,19.00
2022-11-29T00:31:09.304Z,18.70
2022-11-29T00:32:08.282Z,19.20
2022-11-29T00:33:08.284Z,19.90
2022-11-29T00:34:09.985Z,19.00
2022-11-29T00:35:09.941Z,16.30
2022-11-29T00:36:08.278Z,20.30
2022-11-29T00:37:09.475Z,23.00
2022-11-29T00:38:08.326Z,21.50
2022-11-29T00:39:09.140Z,21.10
2022-11-29T00:40:08.913Z,18.80
2022-11-29T00:41:08.165Z,19.30
2022-11-29T00:42:08.168Z,21.00
2022-11-29T00:43:29.205Z,18.80
2022-11-29T00:44:08.393Z,21.40
2022-11-29T00:45:08.377Z,20.00
2022-11-29T00:46:08.143Z,17.90
2022-11-29T00:47:08.834Z,19.70
2022-11-29T00:48:11.857Z,17.50
2022-11-29T00:49:08.948Z,21.60
2022-11-29T00:50:11.794Z,20.10
2022-11-29T00:51:09.501Z,20.90
2022-11-29T00:52:30.998Z,18.30
2022-11-29T00:53:08.006Z,21.00
2022-11-29T00:54:07.994Z,20.10
2022-11-29T00:55:08.035Z,19.30
2022-11-29T00:56:08.000Z,25.00
2022-11-29T00:57:07.966Z,22.10
2022-11-29T00:58:07.989Z,18.40
2022-11-29T00:59:07.987Z,19.50
2022-11-29T01:00:07.962Z,19.30
2022-11-29T01:01:07.941Z,23.80
2022-11-29T01:02:07.944Z,18.40
2022-11-29T01:03:07.905Z,20.00
2022-11-29T01:04:07.877Z,21.10
2022-11-29T01:05:07.868Z,20.30
2022-11-29T01:06:07.897Z,23.40
2022-11-29T01:07:07.847Z,21.10
2022-11-29T01:08:07.826Z,21.90
2022-11-29T01:09:07.865Z,18.80
2022-11-29T01:10:07.837Z,18.40
2022-11-29T01:11:07.797Z,19.20
2022-11-29T01:12:07.844Z,21.10
2022-11-29T01:13:07.820Z,20.40
2022-11-29T01:14:08.142Z,20.20
2022-11-29T01:15:07.772Z,20.10
2022-11-29T01:16:07.778Z,19.10
2022-11-29T01:17:07.803Z,20.70
2022-11-29T01:18:07.748Z,20.00
2022-11-29T01:19:07.783Z,20.60
2022-11-29T01:20:07.768Z,19.30
2022-11-29T01:21:07.720Z,19.70
2022-11-29T01:22:07.689Z,18.60
2022-11-29T01:23:07.711Z,20.90
2022-11-29T01:24:07.756Z,20.90
2022-11-29T01:25:07.650Z,22.60
2022-11-29T01:26:07.685Z,19.40
2022-11-29T01:27:07.618Z,20.10
2022-11-29T01:28:07.616Z,21.90
2022-11-29T01:29:07.660Z,21.10
2022-11-29T01:30:07.663Z,21.00
2022-11-29T01:31:07.650Z,20.80
2022-11-29T01:32:07.561Z,19.10
2022-11-29T01:33:07.550Z,19.10
2022-11-29T01:34:07.548Z,22.10
2022-11-29T01:35:07.550Z,18.50
2022-11-29T01:36:07.597Z,20.70
2022-11-29T01:37:07.507Z,24.20
2022-11-29T01:38:07.490Z,18.10
2022-11-29T01:39:07.482Z,22.00
2022-11-29T01:40:07.490Z,24.30
2022-11-29T01:41:07.699Z,19.50
2022-11-29T01:42:07.489Z,21.40
2022-11-29T01:43:07.451Z,26.00
2022-11-29T01:44:07.820Z,26.80
2022-11-29T01:45:07.500Z,19.80
2022-11-29T01:46:07.517Z,19.00
2022-11-29T01:47:07.451Z,22.40
2022-11-29T01:48:07.381Z,19.10
2022-11-29T01:49:07.362Z,18.90
2022-11-29T01:50:07.562Z,20.70
2022-11-29T01:51:07.363Z,21.40
2022-11-29T01:52:07.397Z,21.20
2022-11-29T01:53:07.583Z,18.50
2022-11-29T01:54:07.370Z,21.10
2022-11-29T01:55:07.471Z,24.90
2022-11-29T01:56:07.425Z,22.10
2022-11-29T01:57:07.302Z,21.60
2022-11-29T01:58:07.304Z,18.70
2022-11-29T01:59:07.288Z,21.10
2022-11-29T02:00:07.243Z,19.50
2022-11-29T02:01:07.332Z,20.70
2022-11-29T02:02:07.262Z,21.50
2022-11-29T02:03:07.311Z,19.80
2022-11-29T02:04:07.317Z,17.30
2022-11-29T02:05:07.194Z,20.80
2022-11-29T02:06:07.185Z,22.40
2022-11-29T02:07:07.220Z,19.90
2022-11-29T02:08:07.161Z,20.70
2022-11-29T02:09:07.144Z,20.60
2022-11-29T02:10:07.155Z,19.50
2022-11-29T02:11:07.135Z,18.90
2022-11-29T02:12:07.115Z,19.10
2022-11-29T02:13:07.105Z,19.20
2022-11-29T02:14:07.114Z,17.10
2022-11-29T02:15:07.179Z,20.20
2022-11-29T02:16:07.565Z,18.60
2022-11-29T02:17:07.075Z,18.10
2022-11-29T02:18:07.174Z,22.10
2022-11-29T02:19:07.105Z,20.70
2022-11-29T02:20:07.052Z,21.70
2022-11-29T02:21:07.037Z,20.10
2022-11-29T02:22:07.061Z,20.90
2022-11-29T02:23:06.987Z,19.90
2022-11-29T02:24:06.976Z,22.20
2022-11-29T02:25:06.986Z,20.30
2022-11-29T02:26:06.994Z,22.70
2022-11-29T02:27:06.990Z,22.40
2022-11-29T02:28:06.928Z,19.90
2022-11-29T02:29:06.923Z,20.20
2022-11-29T02:30:06.913Z,19.50
2022-11-29T02:31:06.941Z,21.90
2022-11-29T02:32:06.951Z,23.40
2022-11-29T02:33:06.936Z,18.10
2022-11-29T02:34:06.868Z,19.20
2022-11-29T02:35:06.857Z,19.10
2022-11-29T02:36:06.839Z,17.50
2022-11-29T02:37:11.369Z,18.50
2022-11-29T02:38:06.874Z,19.40
2022-11-29T02:39:06.824Z,20.20
2022-11-29T02:40:06.799Z,21.60
2022-11-29T02:41:07.075Z,25.90
2022-11-29T02:42:06.851Z,19.70
2022-11-29T02:43:06.800Z,23.10
2022-11-29T02:44:06.764Z,18.50
2022-11-29T02:45:06.767Z,18.30
2022-11-29T02:46:06.848Z,19.70
2022-11-29T02:47:06.718Z,19.10
2022-11-29T02:48:06.727Z,20.70
2022-11-29T02:49:06.728Z,20.20
2022-11-29T02:50:06.686Z,19.20
2022-11-29T02:51:06.805Z,22.50
2022-11-29T02:52:06.690Z,22.80
2022-11-29T02:53:06.663Z,19.80
2022-11-29T02:54:06.648Z,20.70
2022-11-29T02:55:06.849Z,18.60
2022-11-29T02:56:06.652Z,20.10
2022-11-29T02:57:06.711Z,22.40
2022-11-29T02:58:06.611Z,18.70
2022-11-29T02:59:06.683Z,21.00
2022-11-29T03:00:06.588Z,21.50
2022-11-29T03:01:06.841Z,19.10
2022-11-29T03:02:06.645Z,20.90
2022-11-29T03:03:06.562Z,21.80
2022-11-29T03:04:06.577Z,20.70
2022-11-29T03:05:06.556Z,20.50
2022-11-29T03:06:06.910Z,19.30
2022-11-29T03:07:06.573Z,20.30
2022-11-29T03:08:06.521Z,22.00
2022-11-29T03:09:06.492Z,22.30
2022-11-29T03:10:06.470Z,19.90
2022-11-29T03:11:06.451Z,22.90
2022-11-29T03:12:06.617Z,20.90
2022-11-29T03:13:06.467Z,21.90
2022-11-29T03:14:06.422Z,22.10
2022-11-29T03:15:06.445Z,20.60
2022-11-29T03:16:06.492Z,21.50
2022-11-29T03:17:06.390Z,19.30
2022-11-29T03:18:06.427Z,22.70
2022-11-29T03:19:06.382Z,23.70
2022-11-29T03:20:06.388Z,23.10
2022-11-29T03:21:06.367Z,20.60
2022-11-29T03:22:06.324Z,20.60
2022-11-29T03:23:06.383Z,20.80
2022-11-29T03:24:06.314Z,23.80
2022-11-29T03:25:06.303Z,23.20
2022-11-29T03:26:06.304Z,21.50
2022-11-29T03:27:06.265Z,22.20
2022-11-29T03:28:06.306Z,20.10
2022-11-29T03:29:06.378Z,22.50
2022-11-29T03:30:06.234Z,21.40
2022-11-29T03:31:06.280Z,21.30
2022-11-29T03:32:06.550Z,25.70
2022-11-29T03:33:06.205Z,26.70
2022-11-29T03:34:06.194Z,24.80
2022-11-29T03:35:06.225Z,22.90
2022-11-29T03:36:06.176Z,22.00
2022-11-29T03:37:06.268Z,25.60
2022-11-29T03:38:06.184Z,24.10
2022-11-29T03:39:06.140Z,22.70
2022-11-29T03:40:06.196Z,22.30
2022-11-29T03:41:06.175Z,22.20
2022-11-29T03:42:06.115Z,28.70
2022-11-29T03:43:06.086Z,23.30
2022-11-29T03:44:06.076Z,28.00
2022-11-29T03:45:06.056Z,25.60
2022-11-29T03:46:06.288Z,26.50
2022-11-29T03:47:06.065Z,28.00
2022-11-29T03:48:06.039Z,26.80
2022-11-29T03:49:06.057Z,25.00
2022-11-29T03:50:06.112Z,24.50
2022-11-29T03:51:06.002Z,27.30
2022-11-29T03:52:06.114Z,26.90
2022-11-29T03:53:05.997Z,30.40
2022-11-29T03:54:05.988Z,29.80
2022-11-29T03:55:05.953Z,28.30
2022-11-29T03:56:05.979Z,30.60
2022-11-29T03:57:06.023Z,26.40
2022-11-29T03:58:06.008Z,25.90
2022-11-29T03:59:05.911Z,28.30
2022-11-29T04:00:05.911Z,25.30
2022-11-29T04:01:06.048Z,28.50
2022-11-29T04:02:05.868Z,22.90
2022-11-29T04:03:06.041Z,25.10
2022-11-29T04:04:05.888Z,26.60
2022-11-29T04:05:05.860Z,26.80
2022-11-29T04:06:05.856Z,23.20
2022-11-29T04:07:05.951Z,25.30
2022-11-29T04:08:05.818Z,24.40
2022-11-29T04:09:05.811Z,21.10
2022-11-29T04:10:05.853Z,26.30
2022-11-29T04:11:05.790Z,23.10
2022-11-29T04:12:05.769Z,24.40
2022-11-29T04:13:05.758Z,27.10
2022-11-29T04:14:05.827Z,27.40
2022-11-29T04:15:05.786Z,26.00
2022-11-29T04:16:05.994Z,28.90
2022-11-29T04:17:05.724Z,26.00
2022-11-29T04:18:05.694Z,27.70
2022-11-29T04:19:05.695Z,30.10
2022-11-29T04:20:05.703Z,30.30
2022-11-29T04:21:05.751Z,25.70
2022-11-29T04:22:05.670Z,24.40
2022-11-29T04:23:05.655Z,24.40
2022-11-29T04:24:05.712Z,25.70
2022-11-29T04:25:05.906Z,26.00
2022-11-29T04:26:05.609Z,24.50
2022-11-29T04:27:05.621Z,23.50
2022-11-29T04:28:05.591Z,25.20
2022-11-29T04:29:05.735Z,25.80
2022-11-29T04:30:05.633Z,26.30
2022-11-29T04:31:05.594Z,27.70
2022-11-29T04:32:05.562Z,24.50
2022-11-29T04:33:05.532Z,26.60
2022-11-29T04:34:05.542Z,24.10
2022-11-29T04:35:05.550Z,22.60
2022-11-29T04:36:05.494Z,21.20
2022-11-29T04:37:05.485Z,25.70
2022-11-29T04:38:05.534Z,23.00
2022-11-29T04:39:05.488Z,24.20
2022-11-29T04:40:05.463Z,20.90
2022-11-29T04:41:05.442Z,22.50
2022-11-29T04:42:05.468Z,22.20
2022-11-29T04:43:05.413Z,22.30
2022-11-29T04:44:05.533Z,22.40
2022-11-29T04:45:05.396Z,21.70
2022-11-29T04:46:05.427Z,27.10
2022-11-29T04:47:05.419Z,23.20
2022-11-29T04:48:05.373Z,22.00
2022-11-29T04:49:05.346Z,23.60
2022-11-29T04:50:05.543Z,26.70
2022-11-29T04:51:05.338Z,21.80
2022-11-29T04:52:05.356Z,19.70
2022-11-29T04:53:05.370Z,23.30
2022-11-29T04:54:05.324Z,21.20
2022-11-29T04:55:05.312Z,21.30
2022-11-29T04:56:05.298Z,23.10
2022-11-29T04:57:05.283Z,25.30
2022-11-29T04:58:05.275Z,23.10
2022-11-29T04:59:05.244Z,24.80
2022-11-29T05:00:05.368Z,25.60
2022-11-29T05:01:05.397Z,22.90
2022-11-29T05:02:05.362Z,24.70
2022-11-29T05:03:05.277Z,23.30
2022-11-29T05:04:05.185Z,25.30
2022-11-29T05:05:05.219Z,23.40
2022-11-29T05:06:05.273Z,22.80
2022-11-29T05:07:05.189Z,22.10
2022-11-29T05:08:05.152Z,23.60
2022-11-29T05:09:05.127Z,28.10
2022-11-29T05:10:05.116Z,25.20
2022-11-29T05:11:05.097Z,26.10
2022-11-29T05:12:05.135Z,29.30
2022-11-29T05:13:05.097Z,24.00
2022-11-29T05:14:05.067Z,24.50
2022-11-29T05:15:05.058Z,23.60
2022-11-29T05:16:05.395Z,25.90
2022-11-29T05:17:05.077Z,33.50
2022-11-29T05:18:05.250Z,21.80
2022-11-29T05:19:05.098Z,27.90
2022-11-29T05:20:05.025Z,24.60
2022-11-29T05:21:05.030Z,27.70
2022-11-29T05:22:04.991Z,30.10
2022-11-29T05:23:04.998Z,27.90
2022-11-29T05:24:04.982Z,30.00
2022-11-29T05:25:04.964Z,27.10
2022-11-29T05:26:05.134Z,24.90
2022-11-29T05:27:04.939Z,24.10
2022-11-29T05:28:09.875Z,24.50
2022-11-29T05:29:05.942Z,26.90
2022-11-29T05:30:04.920Z,29.10
2022-11-29T05:31:04.958Z,29.40
2022-11-29T05:32:04.880Z,25.40
2022-11-29T05:33:05.060Z,24.80
2022-11-29T05:34:04.907Z,27.40
2022-11-29T05:35:04.860Z,24.80
2022-11-29T05:36:04.830Z,26.20
2022-11-29T05:37:04.829Z,29.20
2022-11-29T05:38:04.840Z,24.90
2022-11-29T05:39:04.800Z,27.70
2022-11-29T05:40:04.830Z,26.00
2022-11-29T05:41:04.851Z,27.40
2022-11-29T05:42:04.752Z,28.20
2022-11-29T05:43:04.761Z,25.40
2022-11-29T05:44:04.731Z,25.60
2022-11-29T05:45:05.150Z,27.10
2022-11-29T05:46:04.876Z,22.10
2022-11-29T05:47:04.974Z,22.10
2022-11-29T05:48:04.792Z,23.80
2022-11-29T05:49:04.774Z,27.10
2022-11-29T05:50:04.748Z,25.20
2022-11-29T05:51:04.763Z,23.90
2022-11-29T05:52:04.704Z,21.80
2022-11-29T05:53:04.831Z,21.10
2022-11-29T05:54:04.945Z,24.10
2022-11-29T05:55:04.921Z,26.70
2022-11-29T05:56:04.882Z,27.90
2022-11-29T05:57:04.775Z,23.20
2022-11-29T05:58:04.816Z,24.70
2022-11-29T05:59:05.212Z,22.80
2022-11-29T06:00:04.717Z,25.60
2022-11-29T06:01:04.811Z,23.20
2022-11-29T06:02:04.801Z,30.30
2022-11-29T06:03:04.901Z,19.80
2022-11-29T06:04:06.241Z,24.50
2022-11-29T06:05:04.948Z,26.50
2022-11-29T06:06:05.537Z,25.10
2022-11-29T06:07:04.911Z,22.50
2022-11-29T06:08:07.081Z,21.60
2022-11-29T06:09:06.874Z,25.30
2022-11-29T06:10:05.500Z,26.80
2022-11-29T06:11:05.682Z,22.00
2022-11-29T06:12:04.650Z,20.00
2022-11-29T06:13:07.499Z,21.70
2022-11-29T06:14:05.140Z,22.40
2022-11-29T06:15:06.278Z,23.40
2022-11-29T06:16:05.393Z,25.90
2022-11-29T06:17:04.937Z,24.80
2022-11-29T06:18:05.437Z,21.50
2022-11-29T06:19:05.096Z,23.90
2022-11-29T06:20:07.315Z,20.80
2022-11-29T06:21:07.201Z,27.10
2022-11-29T06:22:05.368Z,20.20
2022-11-29T06:23:06.674Z,21.20
2022-11-29T06:24:05.543Z,19.20
2022-11-29T06:25:06.231Z,22.30
2022-11-29T06:26:04.898Z,22.90
2022-11-29T06:27:05.969Z,19.50
2022-11-29T06:28:05.066Z,21.20
2022-11-29T06:29:05.527Z,22.50
2022-11-29T06:30:05.344Z,20.70
2022-11-29T06:31:04.840Z,20.50
2022-11-29T06:32:06.005Z,22.60
2022-11-29T06:33:04.576Z,23.00
2022-11-29T06:34:06.257Z,20.10
2022-11-29T06:35:04.792Z,20.00
2022-11-29T06:36:05.961Z,26.00
2022-11-29T06:37:05.224Z,18.10
2022-11-29T06:38:04.699Z,21.60
2022-11-29T06:39:05.774Z,18.00
2022-11-29T06:40:05.423Z,15.30
2022-11-29T06:41:09.349Z,15.50
2022-11-29T06:42:04.395Z,14.60
2022-11-29T06:43:04.810Z,17.40
2022-11-29T06:44:05.930Z,17.70
2022-11-29T06:45:05.208Z,16.70
2022-11-29T06:46:05.518Z,15.30
2022-11-29T06:47:05.719Z,13.60
2022-11-29T06:48:05.479Z,17.70
2022-11-29T06:49:07.316Z,15.80
2022-11-29T06:50:07.293Z,14.70
2022-11-29T06:51:05.477Z,16.80
2022-11-29T06:52:05.897Z,14.60
2022-11-29T06:53:06.048Z,15.90
2022-11-29T06:54:04.263Z,14.90
2022-11-29T06:55:04.314Z,15.20
2022-11-29T06:56:04.550Z,13.70
2022-11-29T06:57:04.327Z,16.90
2022-11-29T06:58:04.619Z,17.00
2022-11-29T06:59:04.085Z,15.00
2022-11-29T07:00:04.512Z,16.90
2022-11-29T07:01:04.268Z,13.90
2022-11-29T07:02:05.787Z,16.30
2022-11-29T07:03:04.100Z,17.20
2022-11-29T07:04:04.496Z,18.70
2022-11-29T07:05:04.089Z,18.40
2022-11-29T07:06:04.162Z,20.30
2022-11-29T07:07:04.074Z,20.80
2022-11-29T07:08:04.263Z,17.70
2022-11-29T07:09:04.003Z,18.90
2022-11-29T07:10:03.961Z,20.70
2022-11-29T07:11:06.539Z,19.20
2022-11-29T07:12:05.186Z,20.80
2022-11-29T07:13:05.033Z,22.90
2022-11-29T07:14:04.414Z,20.10
2022-11-29T07:15:04.940Z,19.30
2022-11-29T07:16:05.049Z,20.20
2022-11-29T07:17:04.768Z,19.40
2022-11-29T07:18:04.566Z,21.50
2022-11-29T07:19:04.090Z,20.00
2022-11-29T07:20:05.352Z,19.10
2022-11-29T07:21:05.927Z,20.40
2022-11-29T07:22:07.750Z,21.00
2022-11-29T07:23:05.996Z,18.60
2022-11-29T07:24:06.705Z,20.30
2022-11-29T07:25:05.912Z,20.00
2022-11-29T07:26:06.171Z,17.90
2022-11-29T07:27:05.243Z,20.70
2022-11-29T07:28:06.560Z,19.10
2022-11-29T07:29:05.805Z,18.90
2022-11-29T07:30:05.644Z,24.30
2022-11-29T07:31:04.429Z,20.80
2022-11-29T07:32:04.510Z,22.30
2022-11-29T07:33:05.105Z,22.20
2022-11-29T07:34:04.975Z,25.00
2022-11-29T07:35:05.542Z,23.50
2022-11-29T07:36:05.291Z,26.80
2022-11-29T07:37:04.067Z,26.90
2022-11-29T07:38:05.803Z,25.10
2022-11-29T07:39:05.191Z,24.70
2022-11-29T07:40:04.688Z,28.10
2022-11-29T07:41:05.375Z,28.80
2022-11-29T07:42:04.300Z,26.50
2022-11-29T07:43:05.188Z,26.80
2022-11-29T07:44:04.717Z,30.50
2022-11-29T07:45:03.780Z,29.90
2022-11-29T07:46:04.557Z,30.20
2022-11-29T07:47:03.985Z,29.30
2022-11-29T07:48:03.909Z,27.10
2022-11-29T07:49:04.500Z,36.40
2022-11-29T07:50:03.991Z,26.40
2022-11-29T07:51:04.954Z,28.10
2022-11-29T07:52:04.317Z,28.00
2022-11-29T07:53:04.638Z,24.20
2022-11-29T07:54:03.570Z,29.40
2022-11-29T07:55:03.548Z,29.30
2022-11-29T07:56:03.807Z,24.40
2022-11-29T07:57:05.280Z,25.90
2022-11-29T07:58:03.413Z,26.40
2022-11-29T07:59:03.519Z,25.20
2022-11-29T08:00:05.360Z,26.70
2022-11-29T08:01:04.450Z,25.90
2022-11-29T08:02:10.183Z,28.70
2022-11-29T08:03:06.672Z,25.70
2022-11-29T08:04:04.149Z,24.80
2022-11-29T08:05:03.892Z,27.00
2022-11-29T08:06:05.420Z,22.80
2022-11-29T08:07:04.266Z,28.30
2022-11-29T08:08:04.265Z,25.30
2022-11-29T08:09:05.145Z,23.70
2022-11-29T08:10:04.601Z,25.70
2022-11-29T08:11:04.172Z,29.00
2022-11-29T08:12:04.505Z,26.70
2022-11-29T08:13:03.381Z,24.60
2022-11-29T08:14:04.029Z,28.00
2022-11-29T08:15:04.021Z,22.20
2022-11-29T08:16:04.936Z,26.90
2022-11-29T08:17:03.178Z,27.00
2022-11-29T08:18:03.853Z,30.70
2022-11-29T08:19:03.191Z,24.80
2022-11-29T08:20:04.444Z,25.00
2022-11-29T08:21:04.236Z,24.30
2022-11-29T08:22:04.215Z,26.70
2022-11-29T08:23:03.729Z,22.00
2022-11-29T08:24:05.122Z,24.90
2022-11-29T08:25:04.084Z,26.60
2022-11-29T08:26:04.392Z,24.60
2022-11-29T08:27:04.998Z,26.60
2022-11-29T08:28:04.126Z,22.50
2022-11-29T08:29:05.310Z,22.10
2022-11-29T08:30:05.234Z,26.30
2022-11-29T08:31:03.569Z,22.10
2022-11-29T08:32:03.389Z,25.20
2022-11-29T08:33:04.450Z,24.60
2022-11-29T08:34:03.414Z,27.60
2022-11-29T08:35:04.747Z,26.20
2022-11-29T08:36:04.424Z,23.50
2022-11-29T08:37:03.205Z,26.20
2022-11-29T08:38:04.548Z,22.80
2022-11-29T08:39:09.397Z,22.60
2022-11-29T08:40:05.207Z,24.90
2022-11-29T08:41:02.974Z,27.30
2022-11-29T08:42:03.705Z,22.50
2022-11-29T08:43:04.239Z,24.40
2022-11-29T08:44:03.009Z,22.70
2022-11-29T08:45:03.651Z,20.90
2022-11-29T08:46:02.886Z,24.70
2022-11-29T08:47:05.383Z,29.00
2022-11-29T08:48:03.393Z,22.40
2022-11-29T08:49:02.882Z,22.80
2022-11-29T08:50:04.401Z,23.20
2022-11-29T08:51:03.967Z,24.40
2022-11-29T08:52:02.890Z,25.60
2022-11-29T08:53:03.372Z,28.00
2022-11-29T08:54:03.290Z,26.00
2022-11-29T08:55:04.433Z,25.70
2022-11-29T08:56:17.071Z,29.80
2022-11-29T08:57:38.503Z,26.20
2022-11-29T08:58:06.870Z,28.40
2022-11-29T08:59:05.119Z,26.60
2022-11-29T09:00:04.437Z,26.10
2022-11-29T09:01:03.499Z,26.80
2022-11-29T09:02:03.552Z,27.90
2022-11-29T09:03:05.662Z,25.60
2022-11-29T09:04:03.147Z,27.30
2022-11-29T09:05:05.009Z,24.00
2022-11-29T09:06:07.686Z,28.10
2022-11-29T09:07:04.795Z,25.40
2022-11-29T09:08:04.085Z,29.80
2022-11-29T09:09:06.493Z,24.30
2022-11-29T09:10:03.448Z,25.00
2022-11-29T09:11:02.712Z,25.30
2022-11-29T09:12:03.341Z,22.50
2022-11-29T09:13:05.014Z,24.70
2022-11-29T09:14:03.313Z,26.60
2022-11-29T09:15:05.139Z,24.00
2022-11-29T09:16:02.949Z,29.30
2022-11-29T09:17:03.619Z,23.50
2022-11-29T09:18:03.319Z,24.70
2022-11-29T09:19:03.592Z,20.80
2022-11-29T09:20:04.933Z,24.70
2022-11-29T09:21:02.884Z,22.40
2022-11-29T09:22:03.389Z,25.70
2022-11-29T09:23:03.660Z,26.70
2022-11-29T09:24:04.087Z,26.60
2022-11-29T09:25:03.844Z,26.50
2022-11-29T09:26:03.081Z,24.20
2022-11-29T09:27:05.534Z,26.20
2022-11-29T09:28:03.714Z,26.20
2022-11-29T09:29:02.939Z,24.80
2022-11-29T09:30:02.423Z,26.10
2022-11-29T09:31:04.311Z,25.40
2022-11-29T09:32:03.126Z,26.50
2022-11-29T09:33:04.851Z,24.20
2022-11-29T09:34:06.595Z,25.00
2022-11-29T09:35:02.752Z,25.40
2022-11-29T09:36:03.878Z,26.30
2022-11-29T09:37:02.417Z,27.10
2022-11-29T09:38:03.793Z,26.50
2022-11-29T09:39:03.398Z,24.90
2022-11-29T09:40:03.906Z,24.60
2022-11-29T09:41:04.039Z,24.80
2022-11-29T09:42:03.513Z,25.30
2022-11-29T09:43:03.938Z,24.70
2022-11-29T09:44:05.169Z,25.30
2022-11-29T09:45:02.815Z,27.70
2022-11-29T09:46:04.134Z,28.10
2022-11-29T09:47:04.023Z,27.00
2022-11-29T09:48:04.474Z,26.80
2022-11-29T09:49:03.571Z,29.40
2022-11-29T09:50:03.444Z,22.20
2022-11-29T09:51:03.785Z,24.00
2022-11-29T09:52:04.284Z,24.90
2022-11-29T09:53:02.773Z,22.60
2022-11-29T09:54:02.806Z,23.70
2022-11-29T09:55:02.830Z,25.80
2022-11-29T09:56:02.878Z,22.70
2022-11-29T09:57:04.900Z,21.90
2022-11-29T09:58:05.267Z,21.50
2022-11-29T09:59:03.172Z,22.40
2022-11-29T10:00:02.778Z,22.80
2022-11-29T10:01:02.807Z,21.60
2022-11-29T10:02:02.534Z,21.80
2022-11-29T10:03:02.018Z,21.90
2022-11-29T10:04:02.895Z,21.40
2022-11-29T10:05:02.456Z,25.00
2022-11-29T10:06:03.723Z,23.40
2022-11-29T10:07:02.324Z,21.20
2022-11-29T10:08:02.658Z,19.70
2022-11-29T10:09:02.644Z,20.60
2022-11-29T10:10:03.288Z,24.10
2022-11-29T10:11:02.337Z,19.50
2022-11-29T10:12:03.189Z,20.30
2022-11-29T10:13:02.638Z,20.30
2022-11-29T10:14:03.497Z,19.70
2022-11-29T10:15:02.675Z,20.20
2022-11-29T10:16:02.301Z,21.50
2022-11-29T10:17:02.368Z,18.80
2022-11-29T10:18:02.254Z,21.80
2022-11-29T10:19:01.792Z,21.10
2022-11-29T10:20:01.770Z,22.70
2022-11-29T10:21:02.166Z,22.30
2022-11-29T10:22:01.975Z,24.00
2022-11-29T10:23:02.947Z,21.40
2022-11-29T10:24:01.957Z,22.60
2022-11-29T10:25:02.390Z,19.20
2022-11-29T10:26:03.200Z,19.70
2022-11-29T10:27:02.420Z,22.80
2022-11-29T10:28:02.192Z,27.40
2022-11-29T10:29:02.134Z,24.30
2022-11-29T10:30:03.056Z,23.80
2022-11-29T10:31:02.069Z,24.00
2022-11-29T10:32:07.175Z,20.80
2022-11-29T10:33:04.233Z,28.00
2022-11-29T10:34:02.681Z,23.70
2022-11-29T10:35:03.063Z,25.60
2022-11-29T10:36:03.467Z,22.70
2022-11-29T10:37:01.951Z,25.90
2022-11-29T10:38:29.628Z,22.70
2022-11-29T10:39:03.335Z,26.20
2022-11-29T10:40:02.281Z,24.50
2022-11-29T10:41:01.664Z,24.80
2022-11-29T10:42:02.331Z,22.90
2022-11-29T10:43:02.376Z,27.10
2022-11-29T10:44:01.778Z,26.40
2022-11-29T10:45:02.293Z,22.20
2022-11-29T10:46:02.800Z,27.50
2022-11-29T10:47:06.589Z,23.60
2022-11-29T10:48:02.934Z,22.80
2022-11-29T10:49:02.021Z,20.00
2022-11-29T10:50:01.800Z,24.30
2022-11-29T10:51:01.766Z,24.60
2022-11-29T10:52:01.407Z,22.30
2022-11-29T10:53:01.743Z,23.20
2022-11-29T10:54:01.473Z,25.00
2022-11-29T10:55:02.121Z,26.80
2022-11-29T10:56:01.614Z,26.30
2022-11-29T10:57:01.540Z,26.60
2022-11-29T10:58:01.325Z,23.90
2022-11-29T10:59:01.477Z,19.80
2022-11-29T11:00:01.792Z,21.90
2022-11-29T11:01:01.988Z,21.40
2022-11-29T11:02:01.327Z,22.70
2022-11-29T11:03:02.333Z,22.70
2022-11-29T11:04:01.726Z,21.40
2022-11-29T11:05:01.649Z,21.60
2022-11-29T11:06:02.566Z,27.70
2022-11-29T11:07:01.629Z,23.60
2022-11-29T11:08:01.648Z,24.00
2022-11-29T11:09:03.150Z,25.60
2022-11-29T11:10:01.528Z,20.60
2022-11-29T11:11:02.388Z,24.50
2022-11-29T11:12:02.225Z,23.70
2022-11-29T11:13:03.594Z,23.40
2022-11-29T11:14:04.863Z,28.30
2022-11-29T11:15:02.238Z,23.70
2022-11-29T11:16:04.734Z,22.00
2022-11-29T11:17:02.745Z,21.90
2022-11-29T11:18:04.028Z,23.50
2022-11-29T11:19:03.159Z,24.20
2022-11-29T11:20:02.252Z,22.80
2022-11-29T11:21:03.751Z,21.40
2022-11-29T11:22:02.525Z,21.60
2022-11-29T11:23:01.517Z,22.10
2022-11-29T11:24:05.808Z,26.40
2022-11-29T11:25:06.359Z,22.00
2022-11-29T11:26:05.161Z,22.60
2022-11-29T11:27:04.610Z,23.40
2022-11-29T11:28:02.203Z,21.10
2022-11-29T11:29:03.781Z,22.90
2022-11-29T11:30:02.139Z,22.60
2022-11-29T11:31:02.646Z,20.50
2022-11-29T11:32:04.404Z,23.20
2022-11-29T11:33:05.606Z,21.20
2022-11-29T11:34:04.710Z,25.00
2022-11-29T11:35:02.859Z,21.50
2022-11-29T11:36:02.171Z,22.20
2022-11-29T11:37:02.418Z,21.60
2022-11-29T11:38:03.341Z,22.40
2022-11-29T11:39:05.115Z,26.20
2022-11-29T11:40:04.118Z,26.30
2022-11-29T11:41:03.549Z,18.50
2022-11-29T11:42:03.985Z,23.60
2022-11-29T11:43:04.209Z,22.70
2022-11-29T11:44:10.423Z,21.50
2022-11-29T11:45:03.798Z,21.50
2022-11-29T11:46:06.793Z,26.80
2022-11-29T11:47:03.970Z,23.80
2022-11-29T11:48:03.598Z,23.40
2022-11-29T11:49:02.445Z,24.00
2022-11-29T11:50:05.657Z,21.30
2022-11-29T11:51:02.005Z,25.50
2022-11-29T11:52:01.293Z,25.00
2022-11-29T11:53:02.506Z,21.70
2022-11-29T11:54:03.014Z,21.40
2022-11-29T11:55:03.265Z,20.70
2022-11-29T11:56:02.906Z,22.80
2022-11-29T11:57:03.374Z,23.50
2022-11-29T11:58:09.303Z,23.00
2022-11-29T11:59:02.666Z,22.90
2022-11-29T12:00:06.788Z,19.30
2022-11-29T12:01:05.102Z,22.00
2022-11-29T12:02:04.121Z,28.60
2022-11-29T12:03:04.522Z,19.00
2022-11-29T12:04:04.654Z,25.60
2022-11-29T12:05:04.436Z,21.90
2022-11-29T12:06:02.524Z,22.60
2022-11-29T12:07:01.125Z,22.60
2022-11-29T12:08:07.677Z,22.30
2022-11-29T12:09:04.842Z,22.70
2022-11-29T12:10:01.876Z,23.80
2022-11-29T12:11:07.040Z,23.20
2022-11-29T12:12:03.283Z,19.60
2022-11-29T12:13:02.858Z,20.50
2022-11-29T12:14:03.955Z,21.50
2022-11-29T12:15:03.656Z,23.00
2022-11-29T12:16:04.282Z,20.40
2022-11-29T12:17:02.536Z,23.10
2022-11-29T12:18:04.869Z,21.30
2022-11-29T12:19:02.035Z,19.40
2022-11-29T12:20:03.447Z,19.20
2022-11-29T12:21:02.294Z,22.60
2022-11-29T12:22:05.575Z,23.10
2022-11-29T12:23:02.326Z,18.90
2022-11-29T12:24:02.953Z,20.80
2022-11-29T12:25:02.415Z,21.10
2022-11-29T12:26:03.288Z,24.30
2022-11-29T12:27:04.598Z,18.80
2022-11-29T12:28:03.269Z,20.00
2022-11-29T12:29:04.432Z,21.70
2022-11-29T12:30:03.996Z,20.30
2022-11-29T12:31:02.791Z,18.50
2022-11-29T12:32:03.057Z,19.90
2022-11-29T12:33:01.178Z,17.10
2022-11-29T12:34:02.805Z,21.30
2022-11-29T12:35:01.931Z,20.10
2022-11-29T12:36:03.767Z,20.10
2022-11-29T12:37:03.248Z,20.10
2022-11-29T12:38:01.542Z,20.70
2022-11-29T12:39:01.564Z,19.10
2022-11-29T12:40:02.723Z,19.50
2022-11-29T12:41:04.964Z,21.70
2022-11-29T12:42:06.087Z,22.80
2022-11-29T12:43:02.160Z,18.60
2022-11-29T12:44:02.728Z,23.10
2022-11-29T12:45:02.350Z,22.60
2022-11-29T12:46:04.545Z,23.00
2022-11-29T12:47:20.620Z,27.50
2022-11-29T12:48:05.258Z,27.70
2022-11-29T12:48:59.963Z,23.60
2022-11-29T12:50:02.414Z,21.40
2022-11-29T12:51:04.044Z,25.60
2022-11-29T12:52:03.847Z,21.00